createdAt,value
2022-08-12T00:00:10.517Z,65.80
2022-08-12T00:02:56.390Z,66.80
2022-08-12T00:06:04.257Z,66.40
2022-08-12T00:08:56.385Z,66.40
2022-08-12T00:11:45.737Z,67.70
2022-08-12T00:14:32.879Z,67.20
2022-08-12T00:17:19.712Z,66.50
2022-08-12T00:20:06.154Z,66.90
2022-08-12T00:22:59.184Z,66.70
2022-08-12T00:26:21.556Z,67.60
2022-08-12T00:29:05.252Z,67.10
2022-08-12T00:31:51.040Z,68.80
2022-08-12T00:34:37.383Z,67.90
2022-08-12T00:37:24.661Z,67.50
2022-08-12T00:40:11.991Z,68.30
2022-08-12T00:42:42.265Z,68.30
2022-08-12T00:45:12.930Z,68.10
2022-08-12T00:47:43.525Z,69.00
2022-08-12T00:50:18.487Z,68.70
2022-08-12T00:52:48.328Z,68.80
2022-08-12T00:55:18.710Z,69.30
2022-08-12T00:57:52.011Z,70.30
2022-08-12T01:00:24.885Z,70.00
2022-08-12T01:02:58.690Z,70.20
2022-08-12T01:05:45.429Z,70.20
2022-08-12T01:08:43.293Z,70.80
2022-08-12T01:11:33.056Z,70.90
2022-08-12T01:14:04.328Z,71.30
2022-08-12T01:16:35.748Z,71.80
2022-08-12T01:19:04.793Z,71.60
2022-08-12T01:22:05.987Z,72.00
2022-08-12T01:25:06.892Z,72.50
2022-08-12T01:27:41.295Z,73.00
2022-08-12T01:30:14.334Z,73.30
2022-08-12T01:32:47.932Z,73.20
2022-08-12T01:35:18.706Z,73.70
2022-08-12T01:37:57.868Z,74.30
2022-08-12T01:40:36.920Z,73.90
2022-08-12T01:43:10.790Z,73.60
2022-08-12T01:45:57.130Z,74.10
2022-08-12T01:48:39.421Z,75.50
2022-08-12T01:52:20.308Z,74.90
2022-08-12T01:54:19.345Z,75.20
2022-08-12T01:57:00.231Z,75.10
2022-08-12T01:59:50.936Z,75.40
2022-08-12T02:02:32.345Z,75.60
2022-08-12T02:05:35.464Z,75.80
2022-08-12T02:08:45.762Z,75.60
2022-08-12T02:11:23.296Z,76.50
2022-08-12T02:14:13.799Z,77.00
2022-08-12T02:17:01.398Z,76.40
2022-08-12T02:19:54.605Z,77.00
2022-08-12T02:22:32.190Z,77.50
2022-08-12T02:25:10.076Z,77.50
2022-08-12T02:27:43.840Z,77.80
2022-08-12T02:30:19.377Z,77.90
2022-08-12T02:32:50.643Z,78.00
2022-08-12T02:35:23.063Z,78.40
2022-08-12T02:37:56.363Z,78.30
2022-08-12T02:40:29.182Z,78.30
2022-08-12T02:43:12.346Z,78.10
2022-08-12T02:45:51.007Z,78.50
2022-08-12T02:48:30.364Z,79.50
2022-08-12T02:51:05.233Z,79.80
2022-08-12T02:53:37.293Z,79.60
2022-08-12T02:56:07.331Z,80.40
2022-08-12T02:58:41.229Z,80.00
2022-08-12T03:01:11.793Z,80.10
2022-08-12T03:03:42.893Z,80.10
2022-08-12T03:06:18.600Z,79.40
2022-08-12T03:08:54.705Z,79.90
2022-08-12T03:11:42.326Z,80.00
2022-08-12T03:14:17.577Z,80.90
2022-08-12T03:16:59.183Z,80.80
2022-08-12T03:19:31.065Z,81.00
2022-08-12T03:22:13.149Z,81.40
2022-08-12T03:24:44.769Z,81.20
2022-08-12T03:27:15.834Z,81.10
2022-08-12T03:29:50.351Z,81.40
2022-08-12T03:32:36.221Z,81.30
2022-08-12T03:35:07.987Z,81.50
2022-08-12T03:37:41.354Z,80.90
2022-08-12T03:40:31.916Z,81.20
2022-08-12T03:43:24.752Z,81.60
2022-08-12T03:46:17.853Z,82.10
2022-08-12T03:49:05.922Z,82.50
2022-08-12T03:51:51.936Z,82.20
2022-08-12T03:54:42.587Z,82.30
2022-08-12T03:57:29.526Z,82.90
2022-08-12T04:00:23.671Z,83.90
2022-08-12T04:03:00.737Z,84.80
2022-08-12T04:05:56.167Z,84.30
2022-08-12T04:08:27.533Z,84.40
2022-08-12T04:11:14.177Z,83.60
2022-08-12T04:13:42.965Z,82.40
2022-08-12T04:16:13.703Z,81.60
2022-08-12T04:18:43.650Z,82.20
2022-08-12T04:21:13.968Z,82.20
2022-08-12T04:23:48.395Z,81.60
2022-08-12T04:26:17.688Z,80.60
2022-08-12T04:28:46.755Z,80.10
2022-08-12T04:31:15.550Z,80.10
2022-08-12T04:33:45.308Z,80.30
2022-08-12T04:36:15.425Z,80.30
2022-08-12T04:38:44.649Z,81.20
2022-08-12T04:41:13.799Z,80.80
2022-08-12T04:44:00.191Z,80.50
2022-08-12T04:46:33.651Z,81.20
2022-08-12T04:49:05.262Z,81.80
2022-08-12T04:51:36.976Z,82.40
2022-08-12T04:54:06.836Z,82.00
2022-08-12T04:56:35.868Z,80.60
2022-08-12T04:59:05.523Z,76.70
2022-08-12T05:01:34.329Z,72.90
2022-08-12T05:04:04.433Z,70.20
2022-08-12T05:06:33.404Z,67.00
2022-08-12T05:09:11.185Z,64.60
2022-08-12T05:11:53.758Z,62.10
2022-08-12T05:14:24.102Z,60.60
2022-08-12T05:16:53.284Z,58.60
2022-08-12T05:19:22.865Z,57.20
2022-08-12T05:21:51.908Z,56.50
2022-08-12T05:24:22.131Z,55.20
2022-08-12T05:26:52.083Z,55.20
2022-08-12T05:30:06.534Z,56.50
2022-08-12T05:32:10.806Z,57.70
2022-08-12T05:34:39.746Z,59.30
2022-08-12T05:37:08.495Z,60.20
2022-08-12T05:39:38.874Z,61.50
2022-08-12T05:42:08.752Z,61.90
2022-08-12T05:44:37.562Z,63.20
2022-08-12T05:47:07.646Z,64.20
2022-08-12T05:49:41.190Z,64.70
2022-08-12T05:52:10.192Z,64.80
2022-08-12T05:54:57.134Z,65.20
2022-08-12T05:57:26.384Z,64.40
2022-08-12T05:59:55.245Z,63.40
2022-08-12T06:02:23.966Z,63.00
2022-08-12T06:04:53.803Z,62.90
2022-08-12T06:08:00.840Z,63.50
2022-08-12T06:10:32.134Z,63.70
2022-08-12T06:13:02.312Z,63.50
2022-08-12T06:15:32.077Z,64.50
2022-08-12T06:18:13.948Z,65.00
2022-08-12T06:20:47.967Z,64.80
2022-08-12T06:23:16.903Z,64.30
2022-08-12T06:25:46.896Z,63.90
2022-08-12T06:28:17.761Z,64.70
2022-08-12T06:31:02.641Z,64.40
2022-08-12T06:33:55.052Z,63.30
2022-08-12T06:36:29.442Z,63.00
2022-08-12T06:39:01.114Z,61.50
2022-08-12T06:42:02.766Z,59.40
2022-08-12T06:44:37.199Z,58.00
2022-08-12T06:47:05.966Z,56.40
2022-08-12T06:49:36.707Z,56.00
2022-08-12T06:52:07.460Z,55.20
2022-08-12T06:54:36.109Z,53.50
2022-08-12T06:58:05.341Z,52.10
2022-08-12T06:59:56.378Z,51.00
2022-08-12T07:02:26.071Z,50.50
2022-08-12T07:04:54.761Z,49.50
2022-08-12T07:07:23.423Z,49.10
2022-08-12T07:10:03.717Z,50.40
2022-08-12T07:12:40.433Z,50.10
2022-08-12T07:15:10.382Z,49.20
2022-08-12T07:17:41.653Z,48.00
2022-08-12T07:20:51.129Z,47.70
2022-08-12T07:23:03.659Z,46.90
2022-08-12T07:25:40.629Z,47.10
2022-08-12T07:28:16.231Z,46.50
2022-08-12T07:30:48.582Z,47.30
2022-08-12T07:33:22.383Z,47.40
2022-08-12T07:35:54.164Z,46.40
2022-08-12T07:38:29.725Z,45.10
2022-08-12T07:41:07.858Z,45.90
2022-08-12T07:43:51.642Z,48.50
2022-08-12T07:46:24.306Z,47.70
2022-08-12T07:48:55.881Z,47.00
2022-08-12T07:51:26.373Z,47.10
2022-08-12T07:54:00.950Z,45.60
2022-08-12T07:56:32.515Z,45.50
2022-08-12T07:59:03.261Z,45.40
2022-08-12T08:01:34.416Z,45.30
2022-08-12T08:04:20.510Z,47.80
2022-08-12T08:06:50.511Z,46.10
2022-08-12T08:09:22.813Z,45.30
2022-08-12T08:12:18.895Z,45.20
2022-08-12T08:14:51.714Z,43.60
2022-08-12T08:17:20.537Z,43.50
2022-08-12T08:20:03.649Z,43.30
2022-08-12T08:22:41.785Z,45.00
2022-08-12T08:25:20.373Z,45.00
2022-08-12T08:28:05.373Z,44.60
2022-08-12T08:30:38.388Z,42.80
2022-08-12T08:33:24.644Z,43.80
2022-08-12T08:36:00.504Z,43.80
2022-08-12T08:38:32.827Z,42.60
2022-08-12T08:42:17.639Z,41.80
2022-08-12T08:44:12.084Z,41.20
2022-08-12T08:46:44.603Z,42.40
2022-08-12T08:49:15.209Z,42.20
2022-08-12T08:51:45.591Z,40.60
2022-08-12T08:54:14.828Z,40.70
2022-08-12T08:56:46.456Z,42.20
2022-08-12T08:59:15.694Z,42.40
2022-08-12T09:01:46.049Z,41.80
2022-08-12T09:05:07.198Z,41.90
2022-08-12T09:07:18.082Z,42.30
2022-08-12T09:10:02.162Z,42.50
2022-08-12T09:12:54.846Z,42.30
2022-08-12T09:15:35.310Z,42.50
2022-08-12T09:18:08.705Z,43.20
2022-08-12T09:20:39.918Z,43.80
2022-08-12T09:23:58.523Z,43.70
2022-08-12T09:26:04.030Z,44.70
2022-08-12T09:28:36.963Z,42.90
2022-08-12T09:32:03.781Z,45.50
2022-08-12T09:34:28.652Z,42.60
2022-08-12T09:36:58.341Z,43.00
2022-08-12T09:40:00.432Z,41.60
2022-08-12T09:42:57.679Z,41.30
2022-08-12T09:46:06.105Z,45.00
2022-08-12T09:48:20.408Z,43.00
2022-08-12T09:50:55.219Z,41.00
2022-08-12T09:53:29.215Z,42.50
2022-08-12T09:56:58.501Z,46.20
2022-08-12T09:59:00.652Z,42.90
2022-08-12T10:01:34.424Z,39.00
2022-08-12T10:04:10.015Z,39.50
2022-08-12T10:06:55.268Z,40.30
2022-08-12T10:09:28.876Z,41.30
2022-08-12T10:12:33.681Z,41.90
2022-08-12T10:15:03.197Z,42.10
2022-08-12T10:17:31.977Z,46.10
2022-08-12T10:20:01.352Z,44.30
2022-08-12T10:22:47.106Z,42.40
2022-08-12T10:26:35.282Z,40.80
2022-08-12T10:28:41.650Z,41.20
2022-08-12T10:31:47.362Z,42.90
2022-08-12T10:34:26.010Z,42.00
2022-08-12T10:37:00.475Z,45.70
2022-08-12T10:40:03.290Z,42.70
2022-08-12T10:43:00.613Z,40.30
2022-08-12T10:45:31.892Z,39.90
2022-08-12T10:48:21.219Z,39.10
2022-08-12T10:51:01.484Z,39.60
2022-08-12T10:53:44.753Z,39.50
2022-08-12T10:56:19.381Z,39.50
2022-08-12T10:58:50.312Z,41.70
2022-08-12T11:01:50.331Z,42.50
2022-08-12T11:04:35.429Z,42.40
2022-08-12T11:08:38.022Z,39.80
2022-08-12T11:10:00.646Z,39.80
2022-08-12T11:12:56.222Z,42.60
2022-08-12T11:15:24.282Z,41.10
2022-08-12T11:18:18.584Z,41.90
2022-08-12T11:20:49.350Z,39.40
2022-08-12T11:23:25.323Z,38.30
2022-08-12T11:26:07.557Z,39.00
2022-08-12T11:28:39.042Z,38.60
2022-08-12T11:31:14.196Z,39.10
2022-08-12T11:34:05.425Z,40.10
2022-08-12T11:36:39.181Z,40.30
2022-08-12T11:39:12.388Z,41.60
2022-08-12T11:41:43.127Z,40.30
2022-08-12T11:44:37.233Z,39.20
2022-08-12T11:47:03.379Z,39.30
2022-08-12T11:49:38.925Z,39.70
2022-08-12T11:52:17.582Z,40.10
2022-08-12T11:54:56.717Z,40.20
2022-08-12T11:58:27.986Z,40.50
2022-08-12T12:02:01.551Z,40.10
2022-08-12T12:03:05.979Z,40.60
2022-08-12T12:05:39.731Z,41.90
2022-08-12T12:08:41.123Z,40.00
2022-08-12T12:10:59.640Z,39.40
2022-08-12T12:14:08.298Z,39.80
2022-08-12T12:16:18.631Z,40.20
2022-08-12T12:18:47.548Z,39.80
2022-08-12T12:21:17.641Z,39.80
2022-08-12T12:24:07.331Z,40.00
2022-08-12T12:26:38.427Z,40.00
2022-08-12T12:30:13.705Z,40.40
2022-08-12T12:32:10.298Z,41.00
2022-08-12T12:34:40.559Z,40.90
2022-08-12T12:38:04.287Z,40.00
2022-08-12T12:40:18.344Z,46.90
2022-08-12T12:42:57.941Z,40.50
2022-08-12T12:45:33.390Z,39.80
2022-08-12T12:48:07.885Z,39.20
2022-08-12T12:50:42.716Z,40.40
2022-08-12T12:54:07.071Z,40.60
2022-08-12T12:56:13.238Z,40.90
2022-08-12T12:58:43.473Z,41.10
2022-08-12T13:01:26.855Z,40.50
2022-08-12T13:04:02.456Z,40.50
2022-08-12T13:06:32.737Z,40.80
2022-08-12T13:09:04.308Z,39.90
2022-08-12T13:11:41.782Z,39.70
2022-08-12T13:14:28.671Z,40.10
2022-08-12T13:17:00.339Z,41.00
2022-08-12T13:19:37.623Z,42.40
2022-08-12T13:22:21.288Z,42.30
2022-08-12T13:24:56.772Z,42.40
2022-08-12T13:27:34.533Z,42.60
2022-08-12T13:30:11.099Z,42.40
2022-08-12T13:32:41.820Z,42.20
2022-08-12T13:35:20.094Z,41.80
2022-08-12T13:38:03.351Z,41.40
2022-08-12T13:40:34.995Z,41.30
2022-08-12T13:43:07.389Z,41.30
2022-08-12T13:45:37.031Z,41.00
2022-08-12T13:48:07.791Z,40.90
2022-08-12T13:50:40.842Z,40.00
2022-08-12T13:53:24.223Z,40.40
2022-08-12T13:55:59.730Z,41.00
2022-08-12T13:58:34.697Z,40.50
2022-08-12T14:01:06.530Z,40.20
2022-08-12T14:03:51.182Z,46.00
2022-08-12T14:06:26.054Z,40.90
2022-08-12T14:08:59.892Z,45.00
2022-08-12T14:11:51.239Z,44.80
2022-08-12T14:14:31.748Z,41.60
2022-08-12T14:17:10.707Z,39.90
2022-08-12T14:20:00.983Z,40.40
2022-08-12T14:22:32.151Z,40.30
2022-08-12T14:25:02.522Z,40.50
2022-08-12T14:28:03.301Z,41.10
2022-08-12T14:30:29.411Z,41.00
2022-08-12T14:33:02.800Z,40.20
2022-08-12T14:35:41.030Z,40.90
2022-08-12T14:38:26.317Z,40.70
2022-08-12T14:40:58.339Z,40.40
2022-08-12T14:43:31.678Z,40.50
2022-08-12T14:46:16.810Z,41.20
2022-08-12T14:48:47.429Z,41.60
2022-08-12T14:52:48.099Z,43.30
2022-08-12T14:56:59.432Z,44.00
2022-08-12T14:57:19.476Z,42.10
2022-08-12T15:00:06.674Z,43.00
2022-08-12T15:02:40.127Z,43.50
2022-08-12T15:05:09.912Z,41.30
2022-08-12T15:07:49.549Z,40.80
2022-08-12T15:10:31.259Z,40.30
2022-08-12T15:13:07.601Z,40.80
2022-08-12T15:15:43.764Z,39.80
2022-08-12T15:18:20.898Z,40.60
2022-08-12T15:20:52.542Z,40.40
2022-08-12T15:23:29.318Z,41.00
2022-08-12T15:26:11.805Z,41.00
2022-08-12T15:28:54.123Z,41.20
2022-08-12T15:31:28.036Z,41.30
2022-08-12T15:33:58.145Z,41.30
2022-08-12T15:36:54.060Z,41.30
2022-08-12T15:39:17.057Z,41.10
2022-08-12T15:41:50.381Z,41.00
2022-08-12T15:44:38.551Z,40.90
2022-08-12T15:47:10.119Z,41.30
2022-08-12T15:49:54.644Z,41.20
2022-08-12T15:52:31.649Z,41.30
2022-08-12T15:55:06.040Z,41.00
2022-08-12T15:57:53.848Z,41.10
2022-08-12T16:00:32.886Z,41.10
2022-08-12T16:03:08.473Z,40.80
2022-08-12T16:06:11.120Z,40.70
2022-08-12T16:08:40.168Z,40.10
2022-08-12T16:11:18.691Z,39.60
2022-08-12T16:13:49.952Z,40.00
2022-08-12T16:16:23.690Z,39.50
2022-08-12T16:18:58.776Z,39.70
2022-08-12T16:21:50.343Z,39.40
2022-08-12T16:24:18.770Z,39.70
2022-08-12T16:26:51.369Z,40.10
2022-08-12T16:29:38.732Z,40.60
2022-08-12T16:32:24.591Z,40.70
2022-08-12T16:35:01.586Z,40.30
2022-08-12T16:38:27.604Z,40.40
2022-08-12T16:40:23.361Z,40.30
2022-08-12T16:42:54.277Z,41.00
2022-08-12T16:46:04.212Z,41.70
2022-08-12T16:48:33.864Z,41.30
2022-08-12T16:51:06.077Z,41.40
2022-08-12T16:53:44.158Z,41.60
2022-08-12T16:56:16.980Z,42.10
2022-08-12T16:58:48.255Z,42.10
2022-08-12T17:01:19.746Z,42.50
2022-08-12T17:04:08.164Z,43.20
2022-08-12T17:06:43.287Z,43.00
2022-08-12T17:09:17.022Z,43.60
2022-08-12T17:11:49.371Z,44.60
2022-08-12T17:14:23.467Z,44.90
2022-08-12T17:16:57.074Z,45.10
2022-08-12T17:20:16.835Z,45.00
2022-08-12T17:22:16.918Z,45.20
2022-08-12T17:24:55.624Z,45.40
2022-08-12T17:27:26.831Z,45.40
2022-08-12T17:30:04.618Z,46.20
2022-08-12T17:32:39.765Z,46.00
2022-08-12T17:35:37.319Z,45.80
2022-08-12T17:38:09.479Z,46.00
2022-08-12T17:40:42.351Z,46.00
2022-08-12T17:43:55.735Z,46.10
2022-08-12T17:46:03.261Z,46.40
2022-08-12T17:48:38.794Z,47.00
2022-08-12T17:51:15.400Z,46.70
2022-08-12T17:54:11.499Z,47.50
2022-08-12T17:56:38.082Z,47.20
2022-08-12T17:59:12.504Z,48.50
2022-08-12T18:01:45.692Z,48.60
2022-08-12T18:04:22.014Z,48.10
2022-08-12T18:06:53.979Z,48.20
2022-08-12T18:09:32.006Z,49.00
2022-08-12T18:12:24.543Z,49.20
2022-08-12T18:15:00.619Z,49.40
2022-08-12T18:17:33.254Z,48.80
2022-08-12T18:20:17.778Z,49.60
2022-08-12T18:22:55.680Z,49.10
2022-08-12T18:26:15.306Z,49.50
2022-08-12T18:28:32.229Z,49.80
2022-08-12T18:31:03.366Z,49.60
2022-08-12T18:33:41.707Z,49.30
2022-08-12T18:36:22.490Z,49.40
2022-08-12T18:38:56.195Z,49.20
2022-08-12T18:41:34.103Z,49.40
2022-08-12T18:44:09.606Z,49.40
2022-08-12T18:46:55.277Z,49.50
2022-08-12T18:49:33.478Z,49.50
2022-08-12T18:52:08.226Z,49.40
2022-08-12T18:54:48.891Z,49.50
2022-08-12T18:57:45.823Z,49.50
2022-08-12T19:00:13.260Z,49.70
2022-08-12T19:02:42.665Z,49.60
2022-08-12T19:05:17.584Z,49.70
2022-08-12T19:08:01.789Z,50.10
2022-08-12T19:10:32.834Z,50.10
2022-08-12T19:13:23.610Z,50.10
2022-08-12T19:15:58.145Z,49.80
2022-08-12T19:18:31.934Z,49.70
2022-08-12T19:21:11.658Z,49.80
2022-08-12T19:24:06.853Z,50.00
2022-08-12T19:26:36.793Z,50.00
2022-08-12T19:29:08.482Z,49.90
2022-08-12T19:31:45.146Z,50.00
2022-08-12T19:35:07.019Z,50.20
2022-08-12T19:37:27.014Z,50.20
2022-08-12T19:40:07.752Z,50.40
2022-08-12T19:42:42.797Z,51.10
2022-08-12T19:45:17.904Z,50.60
2022-08-12T19:47:46.943Z,50.70
2022-08-12T19:50:20.114Z,51.00
2022-08-12T19:52:51.007Z,50.60
2022-08-12T19:55:25.780Z,50.50
2022-08-12T19:58:02.850Z,50.50
2022-08-12T20:00:36.793Z,50.50
2022-08-12T20:03:09.351Z,50.50
2022-08-12T20:06:04.779Z,50.40
2022-08-12T20:08:37.937Z,50.30
2022-08-12T20:12:10.297Z,50.20
2022-08-12T20:14:01.142Z,50.90
2022-08-12T20:19:53.248Z,50.90
2022-08-12T20:22:24.457Z,51.20
2022-08-12T20:25:01.340Z,50.90
2022-08-12T20:28:02.914Z,52.00
2022-08-12T20:30:37.939Z,53.00
2022-08-12T20:33:23.274Z,53.70
2022-08-12T20:36:14.018Z,53.80
2022-08-12T20:38:51.818Z,54.70
2022-08-12T20:41:22.069Z,55.00
2022-08-12T20:43:57.488Z,54.70
2022-08-12T20:46:31.592Z,54.70
2022-08-12T20:49:01.332Z,54.00
2022-08-12T20:51:54.829Z,53.70
2022-08-12T20:54:32.809Z,53.20
2022-08-12T20:57:08.806Z,55.00
2022-08-12T20:59:48.038Z,54.70
2022-08-12T21:02:24.743Z,56.20
2022-08-12T21:05:20.276Z,56.10
2022-08-12T21:07:52.341Z,55.20
2022-08-12T21:10:21.781Z,55.40
2022-08-12T21:12:55.496Z,54.10
2022-08-12T21:15:30.682Z,53.90
2022-08-12T21:18:28.250Z,53.80
2022-08-12T21:20:59.223Z,54.30
2022-08-12T21:23:31.050Z,54.50
2022-08-12T21:26:16.129Z,54.10
2022-08-12T21:28:58.367Z,53.80
2022-08-12T21:32:37.205Z,53.60
2022-08-12T21:34:26.351Z,53.80
2022-08-12T21:37:26.968Z,54.00
2022-08-12T21:39:53.557Z,54.00
2022-08-12T21:42:28.092Z,54.10
2022-08-12T21:45:46.917Z,54.50
2022-08-12T21:47:53.317Z,54.60
2022-08-12T21:50:22.135Z,55.10
2022-08-12T21:52:57.926Z,55.30
2022-08-12T21:55:26.927Z,56.00
2022-08-12T21:58:03.007Z,56.50
2022-08-12T22:00:35.161Z,56.90
2022-08-12T22:04:04.095Z,57.80
2022-08-12T22:06:31.233Z,57.90
2022-08-12T22:09:15.769Z,58.50
2022-08-12T22:11:49.335Z,59.40
2022-08-12T22:14:25.727Z,59.90
2022-08-12T22:16:56.661Z,60.20
2022-08-12T22:19:27.273Z,60.70
2022-08-12T22:21:58.395Z,61.10
2022-08-12T22:24:30.299Z,61.30
2022-08-12T22:27:18.167Z,61.50
2022-08-12T22:30:07.722Z,61.60
2022-08-12T22:32:44.837Z,62.10
2022-08-12T22:35:55.569Z,62.50
2022-08-12T22:38:26.659Z,63.10
2022-08-12T22:41:01.633Z,63.30
2022-08-12T22:43:58.992Z,64.00
2022-08-12T22:46:52.677Z,64.40
2022-08-12T22:49:36.770Z,64.30
2022-08-12T22:52:18.677Z,64.50
2022-08-12T22:55:03.693Z,65.00
2022-08-12T22:57:49.095Z,65.10
2022-08-12T23:00:23.992Z,65.60
2022-08-12T23:02:58.453Z,65.70
2022-08-12T23:05:57.547Z,65.80
2022-08-12T23:08:30.056Z,66.00
2022-08-12T23:11:04.707Z,66.30
2022-08-12T23:13:55.230Z,66.90
2022-08-12T23:16:30.987Z,67.40
2022-08-12T23:19:09.377Z,68.90
2022-08-12T23:22:05.989Z,68.40
2022-08-12T23:24:36.035Z,68.80
2022-08-12T23:27:22.865Z,69.50
2022-08-12T23:29:59.821Z,69.50
2022-08-12T23:32:42.201Z,69.80
2022-08-12T23:35:18.765Z,70.50
2022-08-12T23:37:53.503Z,70.60
2022-08-12T23:40:25.849Z,70.70
2022-08-12T23:42:55.481Z,70.90
2022-08-12T23:45:31.439Z,71.10
2022-08-12T23:48:03.585Z,71.40
2022-08-12T23:50:35.900Z,71.70
2022-08-12T23:53:17.314Z,72.00
2022-08-12T23:55:54.935Z,72.10
2022-08-12T23:58:28.277Z,71.90
